createdAt,value
2022-08-03T00:04:33.975Z,33.45
2022-08-03T00:09:37.876Z,35.25
2022-08-03T00:14:41.383Z,30.08
2022-08-03T00:19:46.952Z,31.83
2022-08-03T00:24:50.330Z,33.15
2022-08-03T00:29:59.717Z,33.78
2022-08-03T00:35:08.310Z,33.50
2022-08-03T00:40:14.743Z,33.58
2022-08-03T00:45:18.822Z,38.70
2022-08-03T00:50:24.960Z,36.75
2022-08-03T00:55:28.837Z,35.83
2022-08-03T01:00:32.515Z,35.95
2022-08-03T01:05:45.525Z,36.05
2022-08-03T01:11:02.265Z,41.40
2022-08-03T01:16:11.084Z,41.83
2022-08-03T01:21:20.941Z,40.05
2022-08-03T01:26:49.759Z,40.40
2022-08-03T01:32:59.770Z,46.35
2022-08-03T01:37:27.698Z,48.20
2022-08-03T01:42:33.791Z,45.00
2022-08-03T01:47:40.744Z,43.72
2022-08-03T01:52:45.219Z,48.17
2022-08-03T01:58:06.062Z,42.85
2022-08-03T02:03:14.310Z,45.13
2022-08-03T02:08:19.742Z,42.92
2022-08-03T02:13:25.524Z,44.22
2022-08-03T02:18:31.802Z,46.42
2022-08-03T02:23:35.222Z,49.15
2022-08-03T02:28:43.012Z,49.65
2022-08-03T02:33:53.337Z,45.22
2022-08-03T02:39:00.637Z,50.22
2022-08-03T02:44:08.462Z,51.80
2022-08-03T02:49:49.473Z,51.20
2022-08-03T02:54:40.653Z,47.58
2022-08-03T02:59:45.710Z,50.42
2022-08-03T03:05:51.586Z,49.25
2022-08-03T03:16:07.447Z,56.30
2022-08-03T03:21:13.745Z,54.13
2022-08-03T03:26:17.872Z,52.25
2022-08-03T03:31:21.293Z,47.78
2022-08-03T03:36:26.014Z,57.97
2022-08-03T03:41:29.482Z,47.67
2022-08-03T03:46:38.615Z,47.58
2022-08-03T03:51:43.347Z,52.97
2022-08-03T03:56:46.684Z,49.38
2022-08-03T04:01:59.269Z,48.95
2022-08-03T04:07:22.026Z,46.42
2022-08-03T04:12:28.118Z,45.05
2022-08-03T04:17:33.051Z,46.65
2022-08-03T04:22:39.817Z,47.55
2022-08-03T04:27:44.501Z,47.38
2022-08-03T04:33:08.910Z,54.20
2022-08-03T04:38:15.699Z,60.92
2022-08-03T04:43:20.531Z,53.38
2022-08-03T04:48:24.094Z,50.58
2022-08-03T04:53:29.007Z,48.78
2022-08-03T04:58:32.381Z,45.90
2022-08-03T05:03:35.880Z,45.17
2022-08-03T05:08:46.442Z,44.42
2022-08-03T05:13:52.046Z,46.20
2022-08-03T05:18:55.346Z,46.45
2022-08-03T05:24:00.079Z,41.38
2022-08-03T05:29:03.402Z,38.33
2022-08-03T05:34:06.749Z,39.53
2022-08-03T05:39:11.399Z,40.42
2022-08-03T05:44:14.702Z,36.28
2022-08-03T05:49:18.129Z,35.00
2022-08-03T05:54:23.837Z,33.00
2022-08-03T05:59:53.908Z,30.92
2022-08-03T06:05:01.452Z,30.73
2022-08-03T06:10:35.426Z,28.67
2022-08-03T06:15:33.371Z,23.35
2022-08-03T06:20:36.718Z,20.83
2022-08-03T06:25:42.785Z,16.90
2022-08-03T06:30:46.843Z,14.15
2022-08-03T06:35:53.206Z,16.35
2022-08-03T06:40:58.547Z,14.23
2022-08-03T06:46:02.422Z,13.05
2022-08-03T06:51:06.806Z,13.05
2022-08-03T06:56:11.761Z,14.50
2022-08-03T07:01:15.688Z,13.25
2022-08-03T07:06:22.332Z,11.70
2022-08-03T07:11:28.657Z,12.18
2022-08-03T07:16:32.154Z,16.80
2022-08-03T07:21:35.494Z,11.43
2022-08-03T07:26:40.383Z,10.65
2022-08-03T07:31:43.700Z,10.20
2022-08-03T07:36:47.161Z,7.82
2022-08-03T07:41:52.063Z,7.75
2022-08-03T07:46:55.457Z,10.13
2022-08-03T07:52:17.973Z,7.97
2022-08-03T07:57:22.917Z,8.35
2022-08-03T08:02:26.721Z,10.57
2022-08-03T08:07:30.081Z,13.70
2022-08-03T08:12:35.149Z,11.15
2022-08-03T08:17:46.056Z,10.95
2022-08-03T08:22:49.699Z,11.88
2022-08-03T08:28:29.786Z,13.50
2022-08-03T08:33:22.757Z,10.35
2022-08-03T08:38:27.391Z,10.52
2022-08-03T08:43:32.064Z,11.70
2022-08-03T08:48:41.609Z,7.57
2022-08-03T08:53:48.898Z,9.63
2022-08-03T08:58:58.110Z,12.73
2022-08-03T09:04:01.621Z,7.70
2022-08-03T09:09:07.184Z,14.20
2022-08-03T09:14:36.773Z,10.00
2022-08-03T09:19:36.401Z,9.20
2022-08-03T09:25:14.767Z,8.65
2022-08-03T09:30:33.620Z,11.23
2022-08-03T09:35:58.120Z,11.60
2022-08-03T09:41:01.569Z,8.43
2022-08-03T09:46:07.695Z,7.93
2022-08-03T09:51:32.903Z,8.60
2022-08-03T09:56:41.858Z,7.05
2022-08-03T10:01:46.703Z,7.40
2022-08-03T10:07:05.934Z,12.63
2022-08-03T10:12:10.856Z,7.28
2022-08-03T10:17:16.274Z,6.00
2022-08-03T10:22:22.903Z,7.30
2022-08-03T10:27:28.174Z,7.95
2022-08-03T10:32:36.298Z,5.97
2022-08-03T10:37:57.334Z,7.47
2022-08-03T10:43:10.632Z,8.02
2022-08-03T10:48:16.444Z,7.25
2022-08-03T10:53:36.421Z,6.90
2022-08-03T10:58:57.718Z,7.45
2022-08-03T11:04:19.899Z,6.90
2022-08-03T11:09:23.191Z,7.15
2022-08-03T11:14:26.532Z,7.78
2022-08-03T11:19:56.895Z,8.57
2022-08-03T11:25:01.898Z,8.35
2022-08-03T11:30:08.182Z,8.02
2022-08-03T11:35:15.197Z,6.75
2022-08-03T11:40:44.388Z,6.20
2022-08-03T11:45:58.678Z,7.15
2022-08-03T11:51:03.845Z,5.80
2022-08-03T11:56:13.021Z,7.63
2022-08-03T12:01:22.634Z,6.15
2022-08-03T12:06:27.863Z,5.97
2022-08-03T12:11:31.518Z,6.15
2022-08-03T12:16:34.957Z,6.40
2022-08-03T12:21:56.871Z,6.82
2022-08-03T12:27:00.922Z,7.63
2022-08-03T12:32:04.854Z,6.78
2022-08-03T12:37:22.076Z,7.40
2022-08-03T12:42:35.021Z,7.32
2022-08-03T12:47:51.271Z,9.68
2022-08-03T12:52:56.552Z,6.97
2022-08-03T12:57:59.995Z,9.07
2022-08-03T13:03:38.567Z,7.80
2022-08-03T13:08:30.823Z,8.18
2022-08-03T13:13:41.015Z,8.35
2022-08-03T13:18:46.586Z,9.25
2022-08-03T13:23:53.196Z,8.77
2022-08-03T13:28:56.815Z,9.20
2022-08-03T13:34:00.129Z,9.38
2022-08-03T13:39:05.150Z,7.55
2022-08-03T13:44:28.880Z,8.60
2022-08-03T13:49:33.299Z,9.85
2022-08-03T13:54:38.148Z,7.95
2022-08-03T13:59:47.356Z,11.88
2022-08-03T14:04:54.809Z,10.98
2022-08-03T14:09:59.487Z,9.02
2022-08-03T14:15:02.848Z,9.80
2022-08-03T14:20:25.978Z,9.15
2022-08-03T14:25:50.044Z,10.15
2022-08-03T14:30:56.035Z,10.70
2022-08-03T14:35:59.614Z,9.50
2022-08-03T14:41:04.847Z,10.57
2022-08-03T14:46:08.258Z,10.90
2022-08-03T14:51:11.703Z,10.45
2022-08-03T14:56:16.589Z,9.02
2022-08-03T15:02:06.488Z,9.63
2022-08-03T15:06:43.187Z,10.15
2022-08-03T15:11:50.761Z,9.35
2022-08-03T15:16:55.972Z,9.20
2022-08-03T15:22:00.948Z,9.00
2022-08-03T15:27:06.395Z,8.40
2022-08-03T15:32:09.944Z,8.68
2022-08-03T15:37:16.618Z,9.20
2022-08-03T15:42:21.515Z,9.02
2022-08-03T15:47:28.627Z,8.63
2022-08-03T15:52:32.216Z,12.05
2022-08-03T15:59:04.410Z,11.15
2022-08-03T16:03:01.441Z,9.18
2022-08-03T16:08:07.113Z,10.45
2022-08-03T16:13:15.185Z,9.98
2022-08-03T16:18:18.844Z,11.38
2022-08-03T16:23:22.191Z,11.38
2022-08-03T16:28:26.964Z,10.13
2022-08-03T16:33:30.293Z,10.80
2022-08-03T16:38:33.675Z,12.13
2022-08-03T16:43:38.375Z,11.15
2022-08-03T16:48:41.708Z,11.30
2022-08-03T16:54:07.385Z,10.75
2022-08-03T16:59:09.770Z,10.35
2022-08-03T17:04:15.315Z,10.82
2022-08-03T17:09:20.597Z,10.85
2022-08-03T17:14:29.258Z,10.52
2022-08-03T17:19:34.973Z,12.70
2022-08-03T17:24:42.232Z,12.02
2022-08-03T17:29:49.763Z,9.80
2022-08-03T17:34:53.483Z,11.52
2022-08-03T17:39:59.591Z,10.13
2022-08-03T17:45:06.616Z,10.43
2022-08-03T17:50:24.256Z,12.45
2022-08-03T17:55:57.535Z,9.87
2022-08-03T18:01:57.848Z,11.75
2022-08-03T18:06:56.330Z,10.65
2022-08-03T18:12:06.373Z,11.27
2022-08-03T18:17:22.989Z,10.43
2022-08-03T18:22:51.032Z,10.50
2022-08-03T18:27:55.484Z,13.40
2022-08-03T18:34:17.077Z,12.95
2022-08-03T18:38:26.855Z,12.45
2022-08-03T18:43:46.395Z,13.13
2022-08-03T18:49:01.017Z,12.27
2022-08-03T18:54:45.907Z,12.13
2022-08-03T18:59:47.408Z,14.55
2022-08-03T19:04:55.666Z,10.88
2022-08-03T19:10:05.914Z,14.17
2022-08-03T19:15:12.653Z,13.00
2022-08-03T19:20:20.407Z,12.05
2022-08-03T19:25:34.442Z,13.15
2022-08-03T19:30:40.799Z,14.93
2022-08-03T19:35:59.254Z,17.10
2022-08-03T19:41:05.765Z,16.35
2022-08-03T19:46:13.154Z,15.85
2022-08-03T19:51:58.444Z,13.93
2022-08-03T19:56:49.347Z,12.35
2022-08-03T20:01:52.703Z,12.13
2022-08-03T20:06:58.701Z,12.70
2022-08-03T20:12:02.304Z,12.25
2022-08-03T20:17:09.106Z,11.73
2022-08-03T20:22:14.307Z,11.40
2022-08-03T20:27:21.560Z,13.27
2022-08-03T20:32:34.491Z,11.50
2022-08-03T20:37:39.767Z,13.50
2022-08-03T20:42:45.417Z,12.68
2022-08-03T20:47:50.425Z,12.57
2022-08-03T20:52:56.227Z,12.48
2022-08-03T20:58:00.821Z,14.45
2022-08-03T21:03:06.938Z,10.48
2022-08-03T21:08:15.571Z,9.25
2022-08-03T21:13:24.955Z,9.50
2022-08-03T21:18:29.900Z,10.02
2022-08-03T21:23:48.766Z,10.07
2022-08-03T21:28:54.954Z,10.63
2022-08-03T21:34:01.450Z,11.32
2022-08-03T21:39:08.489Z,11.45
2022-08-03T21:44:11.992Z,10.05
2022-08-03T21:50:07.621Z,10.65
2022-08-03T21:54:45.796Z,10.40
2022-08-03T21:59:55.788Z,10.43
2022-08-03T22:10:07.388Z,11.65
2022-08-03T22:15:13.073Z,14.40
2022-08-03T22:20:16.550Z,11.25
2022-08-03T22:25:24.594Z,14.07
2022-08-03T22:30:28.248Z,13.48
2022-08-03T22:35:47.585Z,13.50
2022-08-03T22:40:54.074Z,13.63
2022-08-03T22:46:10.513Z,12.00
2022-08-03T22:51:17.306Z,11.70
2022-08-03T22:56:23.199Z,12.18
2022-08-03T23:01:28.884Z,11.80
2022-08-03T23:06:35.686Z,12.80
2022-08-03T23:11:45.226Z,12.00
2022-08-03T23:16:52.290Z,12.68
2022-08-03T23:22:02.644Z,12.68
2022-08-03T23:27:09.901Z,13.38
2022-08-03T23:32:14.670Z,14.23
2022-08-03T23:37:19.831Z,13.45
2022-08-03T23:42:24.917Z,14.15
2022-08-03T23:47:46.586Z,16.17
2022-08-03T23:53:01.950Z,15.73
2022-08-03T23:58:16.761Z,15.57
